Time;durP1;ratioP1;P1;durP2;ratioP2;P2;SDS_P1;SDS_P2;PMS_P1;PMS_P2;Temp;Humidity;BMP_temperature;BMP_pressure;BME280_temperature;BME280_humidity;BME280_pressure;Samples;Min_cycle;Max_cycle;Signal;HPM_P1;HPM_P2
2023/12/27 00:00:36;;;;;;;9.07;3.03;;;8.00;99.90;;;;;;5013773;28;20182;-73
2023/12/27 00:03:02;;;;;;;7.70;2.75;;;8.00;99.90;;;;;;5013384;28;20185;-73
2023/12/27 00:05:27;;;;;;;7.23;2.27;;;8.00;99.90;;;;;;5037230;28;20270;-73
2023/12/27 00:07:53;;;;;;;6.90;1.97;;;8.00;99.90;;;;;;5032541;28;20268;-73
2023/12/27 00:10:19;;;;;;;5.63;2.40;;;8.00;99.90;;;;;;5031088;28;20628;-73
2023/12/27 00:12:45;;;;;;;9.15;2.92;;;8.00;99.90;;;;;;4996831;28;20211;-73
2023/12/27 00:15:10;;;;;;;5.83;2.30;;;8.00;99.90;;;;;;5034650;28;20781;-73
2023/12/27 00:17:36;;;;;;;5.90;1.87;;;7.90;99.90;;;;;;5034868;28;20592;-73
2023/12/27 00:20:02;;;;;;;5.17;2.20;;;7.90;99.90;;;;;;5030799;28;20249;-73
2023/12/27 00:22:28;;;;;;;7.05;2.60;;;7.90;99.90;;;;;;5013172;28;20177;-73
2023/12/27 00:24:54;;;;;;;9.73;2.90;;;7.90;99.90;;;;;;5028767;28;20224;-73
2023/12/27 00:27:20;;;;;;;9.97;2.90;;;7.90;99.90;;;;;;5036274;28;20283;-73
2023/12/27 00:29:45;;;;;;;7.97;3.00;;;7.80;99.90;;;;;;5042162;28;20292;-73
2023/12/27 00:32:11;;;;;;;6.20;1.90;;;7.80;99.90;;;;;;5020377;28;20591;-73
2023/12/27 00:34:38;;;;;;;7.45;2.25;;;7.70;99.90;;;;;;5012384;28;20174;-73
2023/12/27 00:37:05;;;;;;;5.05;2.10;;;7.70;99.90;;;;;;5030525;28;20195;-73
2023/12/27 00:39:31;;;;;;;6.20;2.53;;;7.70;99.90;;;;;;5045839;28;20234;-73
2023/12/27 00:41:57;;;;;;;4.20;1.90;;;7.70;99.90;;;;;;5030413;28;20663;-73
2023/12/27 00:44:23;;;;;;;8.05;1.70;;;7.60;99.90;;;;;;5011621;28;20542;-73
2023/12/27 00:46:49;;;;;;;5.00;3.13;;;7.60;99.90;;;;;;5012381;28;20217;-73
2023/12/27 00:49:16;;;;;;;5.00;2.37;;;7.60;99.90;;;;;;4980195;28;20632;-73
2023/12/27 00:51:42;;;;;;;9.60;2.70;;;7.60;99.90;;;;;;5038752;28;20275;-73
2023/12/27 00:54:08;;;;;;;5.43;1.93;;;7.50;99.90;;;;;;5012628;28;20204;-74
2023/12/27 00:56:33;;;;;;;5.40;2.37;;;7.50;99.90;;;;;;5030605;28;21216;-73
2023/12/27 00:58:59;;;;;;;5.77;3.00;;;7.50;99.90;;;;;;4995956;28;20688;-73
2023/12/27 01:01:25;;;;;;;4.50;2.30;;;7.50;99.90;;;;;;5012483;28;20177;-73
2023/12/27 01:03:51;;;;;;;6.32;2.95;;;7.50;99.90;;;;;;5012064;28;20581;-73
2023/12/27 01:06:17;;;;;;;9.10;2.33;;;7.40;99.90;;;;;;5024816;28;20242;-73
2023/12/27 01:08:43;;;;;;;9.07;2.03;;;7.50;99.90;;;;;;5040237;28;20998;-72
2023/12/27 01:11:08;;;;;;;7.90;2.83;;;7.40;99.90;;;;;;5012534;28;20184;-73
2023/12/27 01:13:34;;;;;;;6.87;2.97;;;7.40;99.90;;;;;;5012500;28;20260;-73
2023/12/27 01:16:00;;;;;;;7.57;2.20;;;7.50;99.90;;;;;;5003590;28;20224;-73
2023/12/27 01:18:26;;;;;;;8.77;2.50;;;7.50;99.90;;;;;;5012106;28;20235;-73
2023/12/27 01:20:52;;;;;;;7.80;2.00;;;7.40;99.90;;;;;;4995987;28;20174;-73
2023/12/27 01:23:18;;;;;;;6.97;2.40;;;7.50;99.90;;;;;;5012191;28;21217;-73
2023/12/27 01:25:43;;;;;;;6.50;2.57;;;7.50;99.90;;;;;;4995431;28;20313;-73
2023/12/27 01:28:09;;;;;;;6.80;2.27;;;7.50;99.90;;;;;;5012512;28;20676;-73
2023/12/27 01:30:35;;;;;;;9.50;2.43;;;7.50;99.90;;;;;;5020738;28;20177;-73
2023/12/27 01:33:03;;;;;;;6.30;2.20;;;7.50;99.90;;;;;;5014605;28;20178;-73
2023/12/27 01:35:28;;;;;;;6.23;2.17;;;7.50;99.90;;;;;;5049568;28;20219;-73
2023/12/27 01:37:54;;;;;;;5.77;2.37;;;7.60;99.90;;;;;;5032102;28;20591;-73
2023/12/27 01:40:21;;;;;;;5.85;2.50;;;7.60;99.90;;;;;;5050026;28;20161;-73
2023/12/27 01:42:47;;;;;;;6.17;2.40;;;7.60;99.90;;;;;;5049724;28;20516;-74
2023/12/27 01:45:12;;;;;;;4.93;2.00;;;7.70;99.90;;;;;;5048192;28;20197;-74
2023/12/27 01:47:38;;;;;;;4.43;2.40;;;7.70;99.90;;;;;;5032281;28;20185;-73
2023/12/27 01:50:10;;;;;;;6.00;1.73;;;7.70;99.90;;;;;;5029125;28;20217;-73
2023/12/27 01:52:41;;;;;;;5.72;1.90;;;7.80;99.90;;;;;;5027577;28;20260;-73
2023/12/27 01:55:09;;;;;;;6.43;1.98;;;7.80;99.90;;;;;;5047897;28;20197;-74
2023/12/27 01:57:37;;;;;;;6.25;2.17;;;7.80;99.90;;;;;;5049160;28;20181;-74
2023/12/27 02:00:08;;;;;;;7.80;2.13;;;7.90;99.90;;;;;;5026774;28;20573;-73
2023/12/27 02:02:44;;;;;;;7.82;3.42;;;7.90;99.90;;;;;;5053530;28;20574;-73
2023/12/27 02:05:10;;;;;;;5.20;2.20;;;7.90;99.90;;;;;;5034447;28;20205;-73
2023/12/27 02:07:36;;;;;;;10.33;2.53;;;7.90;99.90;;;;;;5022794;28;21233;-74
2023/12/27 02:10:03;;;;;;;7.78;2.40;;;7.90;99.90;;;;;;5050346;28;20642;-73
2023/12/27 02:12:30;;;;;;;7.07;2.83;;;7.80;99.90;;;;;;5027625;28;20594;-74
2023/12/27 02:14:56;;;;;;;6.00;1.95;;;7.80;99.90;;;;;;5051022;28;20244;-73
2023/12/27 02:17:25;;;;;;;7.55;3.10;;;7.80;99.90;;;;;;5035475;28;20197;-73
2023/12/27 02:19:51;;;;;;;6.28;2.30;;;7.80;99.90;;;;;;5034342;28;20896;-73
2023/12/27 02:22:22;;;;;;;6.90;2.25;;;7.80;99.90;;;;;;5039698;28;20264;-72
2023/12/27 02:24:55;;;;;;;13.63;2.80;;;7.80;99.90;;;;;;5031409;28;20181;-71
2023/12/27 02:27:22;;;;;;;8.70;2.72;;;7.80;99.90;;;;;;5018630;28;20188;-72
2023/12/27 02:29:48;;;;;;;5.82;2.28;;;7.80;99.90;;;;;;5026710;28;20197;-72
2023/12/27 02:32:14;;;;;;;5.22;2.28;;;7.80;99.90;;;;;;5037966;28;20633;-72
2023/12/27 02:34:40;;;;;;;7.47;2.43;;;7.90;99.90;;;;;;5030896;28;20169;-74
2023/12/27 02:37:05;;;;;;;7.23;1.97;;;7.90;99.90;;;;;;5014473;28;20174;-74
2023/12/27 02:39:31;;;;;;;5.07;1.53;;;7.90;99.90;;;;;;4998660;28;21158;-73
2023/12/27 02:41:57;;;;;;;3.10;1.70;;;7.90;99.90;;;;;;5007890;28;20235;-73
2023/12/27 02:44:26;;;;;;;7.03;1.70;;;7.90;99.90;;;;;;5021029;28;20591;-73
2023/12/27 02:46:54;;;;;;;7.47;2.50;;;7.90;99.90;;;;;;4998386;28;20207;-73
2023/12/27 02:49:21;;;;;;;5.85;2.10;;;7.90;99.90;;;;;;4998425;28;20198;-74
2023/12/27 02:51:49;;;;;;;4.70;2.42;;;8.00;99.90;;;;;;5014689;28;20173;-74
2023/12/27 02:54:15;;;;;;;7.75;3.00;;;7.90;99.90;;;;;;5031727;28;20280;-73
2023/12/27 02:56:41;;;;;;;8.63;2.60;;;7.90;99.90;;;;;;5014788;28;20281;-72
2023/12/27 02:59:08;;;;;;;5.13;1.93;;;7.90;99.90;;;;;;5040177;28;20192;-72
2023/12/27 03:01:34;;;;;;;7.80;2.25;;;7.90;99.90;;;;;;5032413;28;20185;-72
2023/12/27 03:04:00;;;;;;;5.97;1.48;;;8.00;99.90;;;;;;5014079;28;20262;-73
2023/12/27 03:06:26;;;;;;;5.30;2.00;;;8.00;99.90;;;;;;5014492;28;20292;-73
2023/12/27 03:08:53;;;;;;;9.50;2.23;;;8.00;99.90;;;;;;5005765;28;20308;-73
2023/12/27 03:11:19;;;;;;;5.60;2.40;;;8.00;99.90;;;;;;5014380;28;20170;-73
2023/12/27 03:13:45;;;;;;;9.00;2.47;;;8.00;99.90;;;;;;4997519;28;20185;-73
2023/12/27 03:16:11;;;;;;;10.63;2.00;;;8.00;99.90;;;;;;4997244;28;20197;-73
2023/12/27 03:18:38;;;;;;;7.43;2.05;;;8.00;99.90;;;;;;4998085;28;20204;-73
2023/12/27 03:21:04;;;;;;;6.35;2.35;;;8.00;99.90;;;;;;5014108;28;20169;-73
2023/12/27 03:23:30;;;;;;;6.75;2.38;;;7.90;99.90;;;;;;5032012;28;20208;-73
2023/12/27 03:25:56;;;;;;;7.40;2.63;;;7.90;99.90;;;;;;5031105;28;20259;-73
2023/12/27 03:28:23;;;;;;;5.17;2.00;;;7.90;99.90;;;;;;5013817;28;20684;-73
2023/12/27 03:30:49;;;;;;;8.73;1.90;;;7.90;99.90;;;;;;5014005;28;20180;-73
2023/12/27 03:33:14;;;;;;;8.07;2.00;;;7.80;99.90;;;;;;5039631;28;20264;-74
2023/12/27 03:35:40;;;;;;;5.23;1.60;;;7.80;99.90;;;;;;5022693;23;20226;-77
2023/12/27 03:38:06;;;;;;;6.40;2.43;;;7.80;99.90;;;;;;4977718;28;20178;-77
2023/12/27 03:40:32;;;;;;;9.67;2.47;;;7.80;99.90;;;;;;4980434;28;20640;-77
2023/12/27 03:42:57;;;;;;;8.80;2.77;;;7.80;99.90;;;;;;4993498;28;21234;-77
2023/12/27 03:45:25;;;;;;;4.72;2.28;;;7.70;99.90;;;;;;4977236;28;20256;-77
2023/12/27 03:47:50;;;;;;;5.97;1.90;;;7.70;99.90;;;;;;4977716;28;20188;-77
2023/12/27 03:50:16;;;;;;;5.07;2.17;;;7.70;99.90;;;;;;4961437;28;20166;-77
2023/12/27 03:52:43;;;;;;;6.73;2.70;;;7.70;99.90;;;;;;4993586;28;20742;-77
2023/12/27 03:55:10;;;;;;;4.47;1.98;;;7.70;99.90;;;;;;5000015;28;20202;-76
2023/12/27 03:57:36;;;;;;;7.80;2.20;;;7.70;99.90;;;;;;5016848;28;20188;-77
2023/12/27 04:00:03;;;;;;;6.53;2.20;;;7.70;99.90;;;;;;4993444;28;20198;-77
2023/12/27 04:02:33;;;;;;;7.78;2.15;;;7.80;99.90;;;;;;4977659;28;20710;-76
2023/12/27 04:04:58;;;;;;;9.60;1.70;;;7.80;99.90;;;;;;4993507;28;20213;-76
2023/12/27 04:07:24;;;;;;;5.85;3.25;;;7.80;99.90;;;;;;5026478;28;20171;-77
2023/12/27 04:09:50;;;;;;;6.33;2.67;;;7.80;99.90;;;;;;4976907;28;20205;-77
2023/12/27 04:12:16;;;;;;;7.87;2.50;;;7.80;99.90;;;;;;4977106;28;20589;-77
2023/12/27 04:14:42;;;;;;;7.80;2.60;;;7.90;99.90;;;;;;4992800;28;20180;-76
2023/12/27 04:17:07;;;;;;;7.18;2.20;;;7.90;99.90;;;;;;4995147;28;20182;-76
2023/12/27 04:19:33;;;;;;;5.50;2.43;;;7.90;99.90;;;;;;5007534;28;20183;-76
2023/12/27 04:21:59;;;;;;;7.20;2.70;;;7.90;99.90;;;;;;4992360;28;20174;-76
2023/12/27 04:24:25;;;;;;;9.77;2.72;;;7.90;99.90;;;;;;4978480;28;20162;-77
2023/12/27 04:26:51;;;;;;;6.73;2.47;;;7.90;99.90;;;;;;5014567;28;20209;-77
2023/12/27 04:29:17;;;;;;;8.57;3.20;;;7.90;99.90;;;;;;4996101;28;20197;-76
2023/12/27 04:31:43;;;;;;;7.03;2.10;;;7.90;99.90;;;;;;4981778;28;20170;-76
2023/12/27 04:34:08;;;;;;;4.77;1.70;;;7.90;99.90;;;;;;4976273;28;20174;-76
2023/12/27 04:36:36;;;;;;;9.20;2.28;;;7.90;99.90;;;;;;4976439;28;20680;-76
2023/12/27 04:39:02;;;;;;;11.23;1.87;;;8.00;99.90;;;;;;4992728;28;20177;-76
2023/12/27 04:41:28;;;;;;;6.33;2.27;;;8.00;99.90;;;;;;5015153;28;20584;-76
2023/12/27 04:43:53;;;;;;;9.53;2.13;;;8.10;99.90;;;;;;4996436;28;20676;-75
2023/12/27 04:46:19;;;;;;;9.23;2.40;;;8.10;99.90;;;;;;5009931;28;20691;-77
2023/12/27 04:48:46;;;;;;;5.55;2.20;;;8.10;99.90;;;;;;4993098;28;20640;-74
2023/12/27 04:51:13;;;;;;;5.40;2.05;;;8.10;99.90;;;;;;4992980;28;20196;-74
2023/12/27 04:53:39;;;;;;;8.27;1.67;;;8.10;99.90;;;;;;4976531;28;20273;-74
2023/12/27 04:56:05;;;;;;;3.40;1.50;;;8.20;99.90;;;;;;4975825;28;20743;-74
2023/12/27 04:58:35;;;;;;;4.73;1.60;;;8.20;99.90;;;;;;4992790;28;20181;-74
2023/12/27 05:01:04;;;;;;;5.13;1.75;;;8.30;99.90;;;;;;5010299;28;20585;-74
2023/12/27 05:03:31;;;;;;;3.17;1.30;;;8.30;99.90;;;;;;5014704;28;20181;-75
2023/12/27 05:05:56;;;;;;;7.90;2.28;;;8.30;99.90;;;;;;4987097;28;20611;-75
2023/12/27 05:08:22;;;;;;;2.43;1.30;;;8.30;99.90;;;;;;4992509;28;20206;-75
2023/12/27 05:10:48;;;;;;;4.87;1.60;;;8.30;99.90;;;;;;4960432;28;20179;-75
2023/12/27 05:13:13;;;;;;;4.03;1.30;;;8.40;99.90;;;;;;4992252;28;20174;-75
2023/12/27 05:15:39;;;;;;;5.33;1.70;;;8.40;99.90;;;;;;5023594;28;20713;-75
2023/12/27 05:18:05;;;;;;;5.93;1.70;;;8.40;99.90;;;;;;4997045;28;20181;-76
2023/12/27 05:20:31;;;;;;;7.90;2.10;;;8.40;99.90;;;;;;4992568;28;20324;-75
2023/12/27 05:22:56;;;;;;;4.47;1.60;;;8.40;99.90;;;;;;4992286;28;20651;-76
2023/12/27 05:25:22;;;;;;;5.10;1.43;;;8.40;99.90;;;;;;4992074;28;20194;-76
2023/12/27 05:27:47;;;;;;;4.70;1.77;;;8.40;99.90;;;;;;4976675;28;20190;-76
2023/12/27 05:30:13;;;;;;;4.33;1.43;;;8.40;99.90;;;;;;4992656;28;20224;-77
2023/12/27 05:32:39;;;;;;;3.97;1.43;;;8.40;99.90;;;;;;4993174;28;20656;-77
2023/12/27 05:35:05;;;;;;;6.40;2.77;;;8.40;99.90;;;;;;5013093;28;20998;-77
2023/12/27 05:37:31;;;;;;;4.28;1.83;;;8.40;99.90;;;;;;4996152;28;20181;-77
2023/12/27 05:39:57;;;;;;;3.80;2.27;;;8.40;99.90;;;;;;4996327;28;20624;-77
2023/12/27 05:42:24;;;;;;;6.40;2.20;;;8.40;99.90;;;;;;4995983;28;20565;-76
2023/12/27 05:44:50;;;;;;;4.30;2.10;;;8.50;99.90;;;;;;4995722;28;20210;-76
2023/12/27 05:47:16;;;;;;;7.27;1.97;;;8.50;99.90;;;;;;5001745;28;20584;-76
2023/12/27 05:49:42;;;;;;;4.57;2.40;;;8.50;99.90;;;;;;5006386;28;20680;-77
2023/12/27 05:52:07;;;;;;;8.33;2.87;;;8.50;99.90;;;;;;5004062;28;20184;-77
2023/12/27 05:54:33;;;;;;;4.03;2.07;;;8.60;99.90;;;;;;5029258;28;20217;-77
2023/12/27 05:56:59;;;;;;;8.25;1.95;;;8.60;99.90;;;;;;5029728;28;20181;-76
2023/12/27 05:59:25;;;;;;;3.38;1.95;;;8.60;99.90;;;;;;5015174;28;20636;-77
2023/12/27 06:01:54;;;;;;;4.00;2.17;;;8.50;99.90;;;;;;5006743;28;20181;-77
2023/12/27 06:04:21;;;;;;;9.88;3.20;;;8.60;99.90;;;;;;4979964;28;20186;-76
2023/12/27 06:06:49;;;;;;;9.52;3.45;;;8.60;99.90;;;;;;5013845;28;20229;-76
2023/12/27 06:09:18;;;;;;;9.77;2.45;;;8.50;99.90;;;;;;4997405;28;20679;-77
2023/12/27 06:11:45;;;;;;;7.75;2.38;;;8.50;99.90;;;;;;5002008;28;20178;-77
2023/12/27 06:14:12;;;;;;;7.05;2.67;;;8.50;99.90;;;;;;5003361;28;20252;-77
2023/12/27 06:16:38;;;;;;;6.00;2.38;;;8.60;99.90;;;;;;4995482;28;20194;-77
2023/12/27 06:19:03;;;;;;;6.70;2.63;;;8.60;99.90;;;;;;4995274;28;20496;-78
2023/12/27 06:21:29;;;;;;;10.90;2.87;;;8.60;99.90;;;;;;5012863;28;20687;-77
2023/12/27 06:23:55;;;;;;;6.30;2.57;;;8.70;99.90;;;;;;4995469;28;21000;-77
2023/12/27 06:26:22;;;;;;;6.63;2.50;;;8.70;99.90;;;;;;5007150;28;20629;-77
2023/12/27 06:28:48;;;;;;;8.73;3.97;;;8.70;99.90;;;;;;5012905;28;20218;-77
2023/12/27 06:31:14;;;;;;;10.65;2.55;;;8.70;99.90;;;;;;5012978;28;20174;-76
2023/12/27 06:33:39;;;;;;;8.70;2.87;;;8.70;99.90;;;;;;4995627;28;20569;-77
2023/12/27 06:36:06;;;;;;;4.63;1.90;;;8.70;99.90;;;;;;4994361;28;21213;-77
2023/12/27 06:38:32;;;;;;;8.15;3.58;;;8.80;99.90;;;;;;4995307;28;20194;-76
2023/12/27 06:41:00;;;;;;;3.50;2.60;;;8.80;99.90;;;;;;4979133;28;20548;-76
2023/12/27 06:43:26;;;;;;;11.20;4.20;;;8.80;99.90;;;;;;4994358;28;20181;-76
2023/12/27 06:45:52;;;;;;;6.47;3.57;;;8.90;99.90;;;;;;4994566;28;20679;-76
2023/12/27 06:48:18;;;;;;;4.53;2.80;;;8.80;99.90;;;;;;5002945;28;21216;-76
2023/12/27 06:50:44;;;;;;;7.07;3.22;;;8.90;99.90;;;;;;5012610;28;20205;-76
2023/12/27 06:53:10;;;;;;;7.07;2.97;;;8.90;99.90;;;;;;4994594;28;20174;-76
2023/12/27 06:55:36;;;;;;;6.40;2.63;;;8.90;99.90;;;;;;5011938;28;20198;-76
2023/12/27 06:58:01;;;;;;;5.77;3.67;;;9.00;99.90;;;;;;4962668;28;20952;-76
2023/12/27 07:00:30;;;;;;;7.47;3.13;;;8.90;99.90;;;;;;5000600;28;20174;-76
2023/12/27 07:02:56;;;;;;;4.53;3.00;;;9.00;99.90;;;;;;4999583;28;20684;-76
2023/12/27 07:05:21;;;;;;;9.03;3.30;;;9.00;99.90;;;;;;4995416;28;20571;-77
2023/12/27 07:07:47;;;;;;;7.00;2.63;;;9.00;99.90;;;;;;5013775;28;20201;-76
2023/12/27 07:10:13;;;;;;;5.60;2.70;;;9.10;99.90;;;;;;5011986;28;20260;-77
2023/12/27 07:12:39;;;;;;;7.10;3.13;;;9.10;99.90;;;;;;4987028;28;20202;-76
2023/12/27 07:15:07;;;;;;;7.15;3.33;;;9.20;99.90;;;;;;4980818;28;20198;-76
2023/12/27 07:17:33;;;;;;;7.15;2.80;;;9.20;99.90;;;;;;4994639;28;20599;-76
2023/12/27 07:20:00;;;;;;;5.30;2.28;;;9.30;99.90;;;;;;4981120;28;20186;-76
2023/12/27 07:22:26;;;;;;;9.00;3.10;;;9.30;99.90;;;;;;5012048;28;20572;-76
2023/12/27 07:24:52;;;;;;;7.63;3.10;;;9.30;99.90;;;;;;4982280;28;20268;-76
2023/12/27 07:27:18;;;;;;;8.93;3.33;;;9.30;99.90;;;;;;4994264;28;20588;-76
2023/12/27 07:29:44;;;;;;;6.90;2.60;;;9.40;99.90;;;;;;5012056;28;21219;-76
2023/12/27 07:32:10;;;;;;;3.83;2.37;;;9.30;99.90;;;;;;4994364;28;20975;-76
2023/12/27 07:34:35;;;;;;;6.00;2.30;;;9.40;99.90;;;;;;4979042;28;20631;-76
2023/12/27 07:37:01;;;;;;;7.13;2.83;;;9.40;99.90;;;;;;5016367;28;20249;-76
2023/12/27 07:39:27;;;;;;;6.28;3.55;;;9.40;99.90;;;;;;4995056;28;20178;-75
2023/12/27 07:41:53;;;;;;;6.87;2.40;;;9.40;99.90;;;;;;4995167;28;20181;-76
2023/12/27 07:44:20;;;;;;;5.30;2.10;;;9.50;99.90;;;;;;4996540;28;21253;-76
2023/12/27 07:46:46;;;;;;;5.45;2.47;;;9.50;99.90;;;;;;4999642;28;20208;-76
2023/12/27 07:49:12;;;;;;;8.43;2.80;;;9.50;99.90;;;;;;4992844;28;20300;-76
2023/12/27 07:51:38;;;;;;;4.78;2.80;;;9.50;99.90;;;;;;5011037;28;20174;-76
2023/12/27 07:54:03;;;;;;;8.40;3.40;;;9.60;99.90;;;;;;4984504;28;20551;-76
2023/12/27 07:56:30;;;;;;;8.13;2.50;;;9.60;99.90;;;;;;4997930;28;20210;-75
2023/12/27 07:58:56;;;;;;;7.13;1.60;;;9.70;99.90;;;;;;5001822;28;20240;-76
2023/12/27 08:01:23;;;;;;;5.43;2.20;;;9.70;99.90;;;;;;5011160;28;20597;-76
2023/12/27 08:03:49;;;;;;;11.25;2.88;;;9.80;99.90;;;;;;5010791;28;20248;-75
2023/12/27 08:06:15;;;;;;;7.97;2.20;;;9.80;99.90;;;;;;4976353;28;20202;-76
2023/12/27 08:08:40;;;;;;;6.27;3.30;;;9.80;99.90;;;;;;4993353;28;20206;-75
2023/12/27 08:11:06;;;;;;;4.23;1.77;;;9.80;99.90;;;;;;5001665;28;20643;-76
2023/12/27 08:13:32;;;;;;;5.33;2.67;;;9.80;99.90;;;;;;4992778;28;20182;-75
2023/12/27 08:15:58;;;;;;;6.55;2.90;;;9.80;99.90;;;;;;4976015;28;20256;-76
2023/12/27 08:18:24;;;;;;;6.85;2.13;;;9.80;99.90;;;;;;4992664;28;20197;-76
2023/12/27 08:20:51;;;;;;;6.03;1.80;;;9.80;99.90;;;;;;4989991;28;20181;-75
2023/12/27 08:23:17;;;;;;;5.85;2.00;;;9.90;99.90;;;;;;5012785;28;20276;-75
2023/12/27 08:25:44;;;;;;;3.77;2.20;;;9.90;99.90;;;;;;5009894;28;20280;-75
2023/12/27 08:28:10;;;;;;;4.75;1.63;;;9.90;99.90;;;;;;5010693;28;20285;-75
2023/12/27 08:30:37;;;;;;;9.02;3.00;;;9.90;99.90;;;;;;4960678;28;20174;-75
2023/12/27 08:33:06;;;;;;;4.38;2.58;;;9.90;99.90;;;;;;5010343;28;20591;-75
2023/12/27 08:35:35;;;;;;;4.47;1.98;;;9.90;99.90;;;;;;5009312;28;20225;-75
2023/12/27 08:38:02;;;;;;;4.07;1.83;;;9.90;99.90;;;;;;4993000;28;20178;-75
2023/12/27 08:40:28;;;;;;;3.00;2.45;;;9.90;99.90;;;;;;4992959;28;20185;-75
2023/12/27 08:42:54;;;;;;;5.78;2.00;;;10.00;99.90;;;;;;5010259;28;20205;-76
2023/12/27 08:45:21;;;;;;;5.22;2.25;;;10.00;99.90;;;;;;4983138;28;20206;-75
2023/12/27 08:47:46;;;;;;;4.80;2.15;;;10.10;99.90;;;;;;4992821;28;20185;-76
2023/12/27 08:50:12;;;;;;;11.90;3.90;;;10.10;99.90;;;;;;4992479;28;20202;-75
2023/12/27 08:52:39;;;;;;;4.60;1.70;;;10.10;99.90;;;;;;4993166;28;20629;-75
2023/12/27 08:55:12;;;;;;;7.03;2.25;;;10.10;99.90;;;;;;5000571;28;20228;-75
2023/12/27 08:57:38;;;;;;;3.50;2.03;;;10.10;99.90;;;;;;4992695;28;20182;-75
2023/12/27 09:00:10;;;;;;;4.13;1.90;;;10.20;99.90;;;;;;4992770;28;20205;-76
2023/12/27 09:02:37;;;;;;;3.10;2.33;;;10.20;99.90;;;;;;5000616;28;20182;-74
2023/12/27 09:05:04;;;;;;;4.63;2.63;;;10.30;99.90;;;;;;4991652;28;20198;-74
2023/12/27 09:07:31;;;;;;;5.25;3.20;;;10.30;99.90;;;;;;5002740;28;20178;-74
2023/12/27 09:09:57;;;;;;;3.63;2.40;;;10.30;99.90;;;;;;4980397;28;20348;-75
2023/12/27 09:12:24;;;;;;;6.57;2.75;;;10.40;99.90;;;;;;4996672;28;20236;-76
2023/12/27 09:14:49;;;;;;;3.70;2.22;;;10.40;99.90;;;;;;4995779;28;20184;-75
2023/12/27 09:17:15;;;;;;;10.93;2.43;;;10.40;99.90;;;;;;4996662;28;20339;-73
2023/12/27 09:19:42;;;;;;;4.63;1.77;;;10.50;99.90;;;;;;5022231;28;20221;-75
2023/12/27 09:22:08;;;;;;;5.28;2.30;;;10.50;99.90;;;;;;4980363;28;20175;-74
2023/12/27 09:24:35;;;;;;;3.87;2.30;;;10.50;99.90;;;;;;4995805;28;20240;-75
2023/12/27 09:27:01;;;;;;;4.55;2.22;;;10.60;99.90;;;;;;4996251;28;20593;-75
2023/12/27 09:29:27;;;;;;;5.03;3.37;;;10.60;99.90;;;;;;5021646;28;20732;-75
2023/12/27 09:31:52;;;;;;;4.07;2.57;;;10.50;99.90;;;;;;5025711;28;20604;-76
2023/12/27 09:34:18;;;;;;;6.03;2.47;;;10.60;99.90;;;;;;5019781;28;21377;-76
2023/12/27 09:36:44;;;;;;;3.60;2.37;;;10.70;99.90;;;;;;5017695;23;20661;-76
2023/12/27 09:39:12;;;;;;;4.40;1.93;;;10.70;99.90;;;;;;4980040;28;20684;-76
2023/12/27 09:41:38;;;;;;;2.92;2.00;;;10.70;99.90;;;;;;4985371;28;20659;-77
2023/12/27 09:44:06;;;;;;;2.50;1.80;;;10.80;99.90;;;;;;4995719;28;20209;-77
2023/12/27 09:46:33;;;;;;;5.32;2.05;;;10.80;99.90;;;;;;4996167;28;20202;-77
2023/12/27 09:48:59;;;;;;;2.95;1.67;;;10.90;99.90;;;;;;4996520;28;20191;-77
2023/12/27 09:51:25;;;;;;;3.70;1.88;;;10.90;99.90;;;;;;4998712;28;20545;-77
2023/12/27 09:53:54;;;;;;;3.55;2.03;;;10.90;99.90;;;;;;5024557;28;20174;-76
2023/12/27 09:56:22;;;;;;;7.82;2.00;;;11.00;99.90;;;;;;5004057;28;20194;-77
2023/12/27 09:58:59;;;;;;;3.63;1.45;;;11.00;99.90;;;;;;5025973;28;20178;-76
2023/12/27 10:01:25;;;;;;;6.38;1.80;;;11.10;99.90;;;;;;4989346;28;20201;-76
2023/12/27 10:04:03;;;;;;;4.43;1.17;;;11.10;99.90;;;;;;4990274;28;20178;-77
2023/12/27 10:06:33;;;;;;;2.28;1.27;;;11.20;99.90;;;;;;5003336;28;20204;-76
2023/12/27 10:09:00;;;;;;;2.95;1.77;;;11.20;99.90;;;;;;4980543;28;20675;-76
2023/12/27 10:11:27;;;;;;;6.57;1.52;;;11.30;99.90;;;;;;5014051;28;20730;-76
2023/12/27 10:13:53;;;;;;;2.97;1.65;;;11.30;99.90;;;;;;5013627;28;20174;-77
2023/12/27 10:16:19;;;;;;;2.43;1.50;;;11.40;99.90;;;;;;4994957;28;20198;-77
2023/12/27 10:18:46;;;;;;;4.17;1.63;;;11.40;99.90;;;;;;4994412;28;20683;-77
2023/12/27 10:21:12;;;;;;;2.67;1.45;;;11.40;99.90;;;;;;4995947;28;20248;-77
2023/12/27 10:23:38;;;;;;;2.30;1.00;;;11.50;99.90;;;;;;4995402;28;20614;-77
2023/12/27 10:26:05;;;;;;;2.43;1.77;;;11.50;99.90;;;;;;4995007;28;20704;-77
2023/12/27 10:28:31;;;;;;;3.58;1.20;;;11.50;99.90;;;;;;5020890;28;20251;-77
2023/12/27 10:30:57;;;;;;;2.90;1.30;;;11.50;99.90;;;;;;4995443;28;20589;-77
2023/12/27 10:33:23;;;;;;;3.45;1.00;;;11.50;99.90;;;;;;5013908;28;20680;-77
2023/12/27 10:35:49;;;;;;;1.80;1.42;;;11.50;99.90;;;;;;4995952;28;20224;-75
2023/12/27 10:38:16;;;;;;;4.80;1.93;;;11.50;99.90;;;;;;4995010;28;20185;-77
2023/12/27 10:40:42;;;;;;;2.67;1.25;;;11.50;99.90;;;;;;5004660;28;20572;-76
2023/12/27 10:43:08;;;;;;;2.20;1.30;;;11.50;99.90;;;;;;4978538;28;20177;-77
2023/12/27 10:45:35;;;;;;;3.15;1.10;;;11.50;99.90;;;;;;5011553;28;20609;-76
2023/12/27 10:48:04;;;;;;;5.53;1.35;;;11.60;99.90;;;;;;5012386;28;20217;-76
2023/12/27 10:50:31;;;;;;;3.30;1.40;;;11.60;99.90;;;;;;5012458;28;20182;-76
2023/12/27 10:52:59;;;;;;;3.10;1.40;;;11.70;99.90;;;;;;4994923;28;20577;-76
2023/12/27 10:55:28;;;;;;;2.30;1.30;;;11.70;99.90;;;;;;4993868;28;21078;-76
2023/12/27 10:57:55;;;;;;;2.30;1.35;;;11.70;99.90;;;;;;4994622;28;20659;-77
2023/12/27 11:00:24;;;;;;;3.13;1.10;;;11.80;99.90;;;;;;4995031;28;20295;-76
2023/12/27 11:02:53;;;;;;;2.95;1.00;;;11.80;99.90;;;;;;5012354;28;20582;-76
2023/12/27 11:05:24;;;;;;;2.10;1.13;;;11.90;99.90;;;;;;4994195;28;20243;-77
2023/12/27 11:07:52;;;;;;;2.27;1.50;;;11.90;99.90;;;;;;4995077;28;20609;-77
2023/12/27 11:10:17;;;;;;;1.73;1.10;;;11.90;99.90;;;;;;5013900;28;21076;-76
2023/12/27 11:12:46;;;;;;;2.10;1.33;;;12.00;99.90;;;;;;5012811;28;20574;-76
2023/12/27 11:15:18;;;;;;;3.67;1.70;;;12.00;99.90;;;;;;5020937;28;20547;-75
2023/12/27 11:17:45;;;;;;;3.33;1.13;;;12.00;99.90;;;;;;4959308;28;20626;-76
2023/12/27 11:20:12;;;;;;;2.30;1.20;;;12.00;99.90;;;;;;4990559;28;20190;-75
2023/12/27 11:22:43;;;;;;;2.53;1.10;;;12.00;99.90;;;;;;4962205;28;20604;-75
2023/12/27 11:25:10;;;;;;;2.03;1.10;;;12.00;99.90;;;;;;4993173;28;20691;-76
2023/12/27 11:27:36;;;;;;;1.80;1.10;;;12.00;99.90;;;;;;4994133;28;20732;-76
2023/12/27 11:30:02;;;;;;;2.00;1.20;;;12.10;99.90;;;;;;4994013;28;20633;-75
2023/12/27 11:32:30;;;;;;;2.90;1.67;;;12.10;99.90;;;;;;5011747;28;20672;-76
2023/12/27 11:34:57;;;;;;;3.50;1.70;;;12.20;99.90;;;;;;4993737;28;20174;-76
2023/12/27 11:37:23;;;;;;;1.80;0.90;;;12.20;99.90;;;;;;4993697;28;20695;-75
2023/12/27 11:39:51;;;;;;;1.73;0.90;;;12.30;99.90;;;;;;5011473;28;20593;-76
2023/12/27 11:42:17;;;;;;;3.53;0.90;;;12.30;99.90;;;;;;5006660;28;20199;-77
2023/12/27 11:44:54;;;;;;;1.30;0.73;;;12.30;99.90;;;;;;4993120;28;20605;-77
2023/12/27 11:47:20;;;;;;;1.73;0.60;;;12.40;99.90;;;;;;4996016;28;20640;-77
2023/12/27 11:50:09;;;;;;;1.77;0.67;;;12.50;99.90;;;;;;4984787;28;20644;-77
2023/12/27 11:52:41;;;;;;;1.50;0.70;;;12.50;99.90;;;;;;4970729;28;20593;-77
2023/12/27 11:55:26;;;;;;;1.20;0.60;;;12.60;99.90;;;;;;4991942;28;20632;-77
2023/12/27 11:57:58;;;;;;;2.10;0.60;;;12.70;99.90;;;;;;4985601;28;20612;-76
2023/12/27 12:00:28;;;;;;;5.33;0.70;;;12.70;99.90;;;;;;5010730;28;21158;-75
2023/12/27 12:02:59;;;;;;;2.20;0.57;;;12.80;99.90;;;;;;4993213;28;21049;-76
2023/12/27 12:05:44;;;;;;;1.53;0.60;;;12.80;99.90;;;;;;4993067;28;20604;-76
2023/12/27 12:08:19;;;;;;;1.63;0.50;;;12.90;99.90;;;;;;4993693;28;20679;-77
2023/12/27 12:11:04;;;;;;;2.90;0.57;;;12.90;99.90;;;;;;4993646;28;20675;-76
2023/12/27 12:13:31;;;;;;;1.97;0.70;;;12.90;99.90;;;;;;5011181;28;20584;-76
2023/12/27 12:15:57;;;;;;;2.87;0.70;;;12.90;99.90;;;;;;4993113;28;20609;-76
2023/12/27 12:18:24;;;;;;;2.80;0.73;;;12.90;99.90;;;;;;4993909;28;20581;-76
2023/12/27 12:20:50;;;;;;;1.77;0.70;;;12.90;99.90;;;;;;5003428;28;20567;-75
2023/12/27 12:23:16;;;;;;;1.40;0.60;;;12.90;99.90;;;;;;5011188;28;20700;-76
2023/12/27 12:25:42;;;;;;;2.47;0.87;;;12.90;99.90;;;;;;5012042;28;20588;-76
2023/12/27 12:28:08;;;;;;;2.27;0.70;;;12.90;99.90;;;;;;4993873;28;20573;-77
2023/12/27 12:30:35;;;;;;;1.77;0.70;;;13.00;99.90;;;;;;4993522;28;20178;-76
2023/12/27 12:33:01;;;;;;;3.57;0.80;;;13.00;99.90;;;;;;4993407;28;20589;-77
2023/12/27 12:35:27;;;;;;;2.80;0.80;;;13.10;99.90;;;;;;4976820;28;20582;-76
2023/12/27 12:37:53;;;;;;;1.40;0.67;;;13.10;99.90;;;;;;4976880;28;20691;-77
2023/12/27 12:40:19;;;;;;;1.30;0.50;;;13.20;99.90;;;;;;4993274;28;20589;-76
2023/12/27 12:42:45;;;;;;;1.53;0.70;;;13.20;99.90;;;;;;5000673;28;20244;-76
2023/12/27 12:45:11;;;;;;;2.70;0.67;;;13.30;99.90;;;;;;5010386;28;20236;-76
2023/12/27 12:47:37;;;;;;;1.50;0.60;;;13.30;99.90;;;;;;5010820;28;20206;-76
2023/12/27 12:50:05;;;;;;;2.17;0.60;;;13.30;99.90;;;;;;4993241;28;20633;-77